Time;durP1;ratioP1;P1;durP2;ratioP2;P2;SDS_P1;SDS_P2;PMS_P1;PMS_P2;Temp;Humidity;BMP_temperature;BMP_pressure;BME280_temperature;BME280_humidity;BME280_pressure;Samples;Min_cycle;Max_cycle;Signal;HPM_P1;HPM_P2
2023/10/08 00:01:57;;;;;;;11.75;5.28;;;;;;;;;;4932339;29;20028;-87
2023/10/08 00:04:44;;;;;;;7.80;3.53;;;;;;;;;;4935293;29;20032;-87
2023/10/08 00:07:29;;;;;;;8.60;4.60;;;;;;;;;;4942919;29;20028;-87
2023/10/08 00:10:15;;;;;;;11.07;4.63;;;;;;;;;;4950699;29;20040;-87
2023/10/08 00:13:00;;;;;;;9.18;4.70;;;;;;;;;;4932510;29;20035;-87
2023/10/08 00:15:52;;;;;;;9.05;3.83;;;;;;;;;;4941421;29;20032;-87
2023/10/08 00:18:40;;;;;;;9.07;4.07;;;;;;;;;;4936117;29;20035;-87
2023/10/08 00:21:31;;;;;;;7.13;3.72;;;;;;;;;;4936111;29;20024;-88
2023/10/08 00:24:16;;;;;;;12.55;4.65;;;;;;;;;;4931651;29;20043;-86
2023/10/08 00:27:03;;;;;;;9.20;4.40;;;;;;;;;;4930942;29;20032;-87
2023/10/08 00:29:49;;;;;;;8.05;3.80;;;;;;;;;;4932255;29;20038;-87
2023/10/08 00:32:35;;;;;;;9.82;4.47;;;;;;;;;;4929445;29;20035;-86
2023/10/08 00:35:21;;;;;;;9.10;4.10;;;;;;;;;;4926447;29;20083;-86
2023/10/08 00:38:14;;;;;;;9.88;4.60;;;;;;;;;;4933650;29;20030;-86
2023/10/08 00:41:00;;;;;;;8.90;4.05;;;;;;;;;;4932616;29;20027;-85
2023/10/08 00:43:45;;;;;;;7.90;3.47;;;;;;;;;;4932001;29;20111;-84
2023/10/08 00:46:35;;;;;;;11.05;3.67;;;;;;;;;;4933503;29;20039;-85
2023/10/08 00:52:29;;;;;;;9.23;4.25;;;;;;;;;;4941792;28;20043;-84
2023/10/08 00:55:22;;;;;;;9.10;3.72;;;;;;;;;;4923910;29;20585;-87
2023/10/08 00:58:11;;;;;;;8.90;4.47;;;;;;;;;;4931521;29;20051;-86
2023/10/08 01:00:59;;;;;;;8.32;3.88;;;;;;;;;;4929883;29;20086;-83
2023/10/08 01:03:44;;;;;;;8.18;3.90;;;;;;;;;;4928053;29;20398;-84
2023/10/08 01:06:30;;;;;;;7.95;3.63;;;;;;;;;;4931641;29;20492;-84
2023/10/08 01:09:18;;;;;;;10.07;4.03;;;;;;;;;;4928077;29;20046;-87
2023/10/08 01:15:28;;;;;;;8.85;4.50;;;;;;;;;;4940185;29;20035;-87
2023/10/08 01:18:31;;;;;;;7.38;3.60;;;;;;;;;;4925298;29;20027;-86
2023/10/08 01:21:31;;;;;;;7.15;3.42;;;;;;;;;;4944712;28;20032;-85
2023/10/08 01:24:17;;;;;;;11.32;4.20;;;;;;;;;;4933736;29;20032;-86
2023/10/08 01:27:10;;;;;;;7.38;3.40;;;;;;;;;;4936219;29;20023;-86
2023/10/08 01:30:08;;;;;;;8.50;4.35;;;;;;;;;;4932646;29;20028;-86
2023/10/08 01:32:53;;;;;;;9.73;4.47;;;;;;;;;;4933619;29;20059;-87
2023/10/08 01:35:39;;;;;;;9.70;3.65;;;;;;;;;;4934912;29;20126;-86
2023/10/08 01:38:26;;;;;;;8.40;4.13;;;;;;;;;;4933042;29;20111;-86
2023/10/08 01:41:18;;;;;;;7.07;3.40;;;;;;;;;;4927353;29;20031;-86
2023/10/08 01:44:07;;;;;;;9.02;3.63;;;;;;;;;;4934387;29;20032;-86
2023/10/08 01:46:53;;;;;;;10.30;4.93;;;;;;;;;;4933463;29;20051;-87
2023/10/08 01:49:39;;;;;;;8.90;3.80;;;;;;;;;;4927767;29;20107;-87
2023/10/08 01:52:24;;;;;;;11.43;4.10;;;;;;;;;;4935252;29;20035;-85
2023/10/08 01:55:13;;;;;;;8.98;3.70;;;;;;;;;;4934904;29;20098;-85
2023/10/08 01:57:58;;;;;;;9.38;4.07;;;;;;;;;;4933811;29;20019;-84
2023/10/08 02:00:45;;;;;;;8.30;3.75;;;;;;;;;;4938679;28;20573;-84
2023/10/08 02:03:30;;;;;;;8.15;3.80;;;;;;;;;;4933249;29;20475;-84
2023/10/08 02:06:16;;;;;;;9.85;4.20;;;;;;;;;;4933129;29;20055;-87
2023/10/08 02:09:07;;;;;;;9.35;4.25;;;;;;;;;;4929324;29;20407;-87
2023/10/08 02:11:56;;;;;;;6.95;3.63;;;;;;;;;;4928126;29;20032;-87
2023/10/08 02:14:41;;;;;;;9.75;4.93;;;;;;;;;;4930664;29;20191;-85
2023/10/08 02:17:30;;;;;;;7.10;3.28;;;;;;;;;;4935352;29;20035;-88
2023/10/08 02:20:16;;;;;;;12.98;4.40;;;;;;;;;;4952040;28;20058;-87
2023/10/08 02:23:01;;;;;;;10.27;4.25;;;;;;;;;;4934781;29;20079;-84
2023/10/08 02:25:47;;;;;;;9.40;3.30;;;;;;;;;;4934886;28;20027;-84
2023/10/08 02:28:33;;;;;;;8.60;4.18;;;;;;;;;;4938564;29;20063;-87
2023/10/08 02:31:18;;;;;;;9.65;4.20;;;;;;;;;;4950191;29;20030;-86
2023/10/08 02:34:12;;;;;;;10.90;4.72;;;;;;;;;;4966669;28;20044;-86
2023/10/08 02:36:57;;;;;;;8.90;4.00;;;;;;;;;;4956039;28;20028;-89
2023/10/08 02:39:42;;;;;;;9.52;3.53;;;;;;;;;;4954395;29;20035;-88
2023/10/08 02:42:37;;;;;;;9.60;3.65;;;;;;;;;;4951131;29;20047;-86
2023/10/08 02:45:25;;;;;;;9.32;3.47;;;;;;;;;;4945739;29;20032;-88
2023/10/08 02:48:13;;;;;;;8.70;3.80;;;;;;;;;;4955298;29;20047;-86
2023/10/08 02:51:13;;;;;;;9.00;3.55;;;;;;;;;;4950683;29;20061;-86
2023/10/08 02:54:05;;;;;;;9.18;4.20;;;;;;;;;;4934906;29;20395;-86
2023/10/08 02:56:51;;;;;;;9.98;4.40;;;;;;;;;;4933344;29;20015;-87
2023/10/08 02:59:44;;;;;;;15.10;3.50;;;;;;;;;;4929173;29;20082;-86
2023/10/08 03:02:29;;;;;;;12.10;3.63;;;;;;;;;;4932300;29;20047;-86
2023/10/08 03:05:16;;;;;;;10.38;3.70;;;;;;;;;;4933213;29;20067;-86
2023/10/08 03:08:08;;;;;;;8.90;4.10;;;;;;;;;;4933242;29;20030;-86
2023/10/08 03:10:55;;;;;;;8.35;3.78;;;;;;;;;;4946458;28;20034;-88
2023/10/08 03:13:40;;;;;;;13.93;4.47;;;;;;;;;;4930152;29;20031;-85
2023/10/08 03:16:34;;;;;;;6.28;3.42;;;;;;;;;;4929241;29;20564;-86
2023/10/08 03:19:21;;;;;;;8.38;3.65;;;;;;;;;;4930779;29;20550;-86
2023/10/08 03:22:07;;;;;;;12.70;4.50;;;;;;;;;;4933458;29;20039;-85
2023/10/08 03:24:52;;;;;;;9.93;3.72;;;;;;;;;;4933422;29;20058;-86
2023/10/08 03:27:41;;;;;;;9.82;3.88;;;;;;;;;;4930748;29;20032;-87
2023/10/08 03:30:29;;;;;;;11.07;3.95;;;;;;;;;;4927526;29;20134;-85
2023/10/08 03:33:24;;;;;;;9.63;3.72;;;;;;;;;;4929900;29;20050;-87
2023/10/08 03:36:21;;;;;;;9.23;4.30;;;;;;;;;;4931250;29;20422;-87
2023/10/08 03:39:13;;;;;;;7.40;3.42;;;;;;;;;;4933270;29;20019;-87
2023/10/08 03:42:05;;;;;;;8.90;3.90;;;;;;;;;;4931018;29;20040;-87
2023/10/08 03:44:52;;;;;;;9.20;3.53;;;;;;;;;;4916756;29;20043;-84
2023/10/08 03:47:38;;;;;;;7.93;3.72;;;;;;;;;;4929263;29;20056;-89
2023/10/08 03:50:32;;;;;;;8.68;4.57;;;;;;;;;;4931709;29;20134;-87
2023/10/08 03:53:17;;;;;;;12.73;3.63;;;;;;;;;;4930953;29;20119;-88
2023/10/08 03:56:06;;;;;;;7.90;3.53;;;;;;;;;;4932069;29;20034;-88
2023/10/08 03:58:54;;;;;;;7.88;3.85;;;;;;;;;;4933473;29;20051;-88
2023/10/08 04:01:40;;;;;;;9.18;3.38;;;;;;;;;;4927544;29;20035;-88
2023/10/08 04:04:48;;;;;;;9.70;3.72;;;;;;;;;;4931274;29;20036;-87
2023/10/08 04:13:47;;;;;;;6.65;3.75;;;;;;;;;;4926644;29;20043;-86
2023/10/08 04:16:37;;;;;;;11.48;4.28;;;;;;;;;;4933635;29;20042;-86
2023/10/08 04:19:26;;;;;;;8.02;3.83;;;;;;;;;;4926900;29;20024;-89
2023/10/08 04:22:26;;;;;;;11.50;3.90;;;;;;;;;;4927064;29;20031;-89
2023/10/08 04:25:12;;;;;;;9.90;3.63;;;;;;;;;;4929881;29;20121;-86
2023/10/08 04:27:58;;;;;;;8.75;3.75;;;;;;;;;;4931884;29;20565;-87
2023/10/08 04:30:45;;;;;;;7.70;4.53;;;;;;;;;;4919415;29;20023;-86
2023/10/08 04:33:33;;;;;;;9.70;4.25;;;;;;;;;;4930037;29;20028;-86
2023/10/08 04:36:19;;;;;;;10.65;4.82;;;;;;;;;;4933142;29;20032;-89
2023/10/08 04:39:13;;;;;;;10.50;4.90;;;;;;;;;;4936448;29;20067;-87
2023/10/08 04:42:03;;;;;;;9.25;4.82;;;;;;;;;;4936393;29;20043;-86
2023/10/08 04:44:49;;;;;;;10.23;5.07;;;;;;;;;;4933433;29;20047;-86
2023/10/08 04:47:35;;;;;;;11.27;5.90;;;;;;;;;;4915234;29;20094;-89
2023/10/08 04:50:21;;;;;;;11.07;4.90;;;;;;;;;;4935595;29;20032;-86
2023/10/08 04:53:08;;;;;;;8.77;4.45;;;;;;;;;;4933088;29;20447;-85
2023/10/08 04:55:54;;;;;;;16.30;5.38;;;;;;;;;;4932903;29;20466;-86
2023/10/08 04:58:40;;;;;;;11.55;5.57;;;;;;;;;;4932182;29;20068;-87
2023/10/08 05:01:40;;;;;;;10.95;5.65;;;;;;;;;;4931239;29;20475;-88
2023/10/08 05:04:45;;;;;;;11.35;5.25;;;;;;;;;;4930781;29;20055;-87
2023/10/08 05:10:32;;;;;;;9.63;4.72;;;;;;;;;;4933193;29;20042;-87
2023/10/08 05:13:21;;;;;;;12.38;4.20;;;;;;;;;;4927172;29;20034;-85
2023/10/08 05:16:35;;;;;;;8.45;3.95;;;;;;;;;;4937062;29;20505;-86
2023/10/08 05:28:09;;;;;;;9.55;4.28;;;;;;;;;;4928805;29;20027;-86
2023/10/08 05:31:05;;;;;;;7.55;3.83;;;;;;;;;;4936727;28;20027;-85
2023/10/08 05:37:31;;;;;;;9.25;4.30;;;;;;;;;;4906316;29;20032;-86
2023/10/08 05:40:54;;;;;;;7.13;3.88;;;;;;;;;;4932706;29;20036;-85
2023/10/08 05:55:11;;;;;;;9.38;3.30;;;;;;;;;;4940686;28;20038;-86
2023/10/08 05:58:13;;;;;;;7.97;3.58;;;;;;;;;;4928664;29;20035;-84
2023/10/08 06:01:05;;;;;;;7.93;3.30;;;;;;;;;;4933606;29;20149;-83
2023/10/08 06:04:00;;;;;;;10.68;4.05;;;;;;;;;;4936871;29;20482;-86
2023/10/08 06:06:57;;;;;;;8.60;3.75;;;;;;;;;;4931026;29;20044;-85
2023/10/08 06:09:50;;;;;;;9.73;4.25;;;;;;;;;;4932764;29;20088;-86
2023/10/08 06:12:49;;;;;;;10.73;3.72;;;;;;;;;;4932004;29;20388;-86
2023/10/08 06:15:48;;;;;;;7.35;3.72;;;;;;;;;;4929536;29;20044;-86
2023/10/08 06:18:33;;;;;;;8.47;3.47;;;;;;;;;;4930646;29;20094;-87
2023/10/08 06:21:18;;;;;;;8.60;3.75;;;;;;;;;;4930748;29;20099;-84
2023/10/08 06:24:08;;;;;;;9.73;3.45;;;;;;;;;;4924191;29;20031;-84
2023/10/08 06:26:55;;;;;;;7.80;4.00;;;;;;;;;;4935686;28;20024;-88
2023/10/08 06:29:44;;;;;;;8.18;3.83;;;;;;;;;;4928759;29;20561;-85
2023/10/08 06:32:30;;;;;;;8.68;4.45;;;;;;;;;;4934031;29;20367;-85
2023/10/08 06:35:17;;;;;;;10.00;3.88;;;;;;;;;;4928442;29;20169;-84
2023/10/08 06:38:14;;;;;;;13.50;3.83;;;;;;;;;;4931233;29;20031;-84
2023/10/08 06:41:00;;;;;;;8.63;3.50;;;;;;;;;;4931316;29;20031;-85
2023/10/08 06:43:49;;;;;;;7.32;3.83;;;;;;;;;;4929849;29;20505;-85
2023/10/08 06:46:39;;;;;;;9.27;3.70;;;;;;;;;;4940195;28;20147;-84
2023/10/08 06:49:31;;;;;;;6.88;3.10;;;;;;;;;;4924274;29;20052;-84
2023/10/08 06:52:19;;;;;;;8.13;4.25;;;;;;;;;;4933404;29;20031;-85
2023/10/08 06:55:07;;;;;;;8.23;3.45;;;;;;;;;;4932795;29;20522;-87
2023/10/08 06:58:23;;;;;;;;;;;;;;;;;;;;;
2023/10/08 07:01:21;;;;;;;9.30;3.83;;;;;;;;;;4927405;29;20036;-89
2023/10/08 07:04:11;;;;;;;6.95;3.13;;;;;;;;;;4930829;29;20028;-85
2023/10/08 07:07:07;;;;;;;;;;;;;;;;;;;;;
2023/10/08 07:10:02;;;;;;;8.00;4.03;;;;;;;;;;4923884;29;20036;-87
2023/10/08 07:12:47;;;;;;;7.25;3.58;;;;;;;;;;4935232;29;20043;-88
2023/10/08 07:15:32;;;;;;;11.52;4.25;;;;;;;;;;4921620;29;20031;-86
2023/10/08 07:18:36;;;;;;;15.82;3.75;;;;;;;;;;4926167;29;20019;-87
2023/10/08 07:21:29;;;;;;;9.55;4.20;;;;;;;;;;4924394;29;20051;-87
2023/10/08 07:24:23;;;;;;;11.35;4.40;;;;;;;;;;4914126;29;20027;-90
2023/10/08 07:27:09;;;;;;;9.68;3.83;;;;;;;;;;4929315;29;20034;-86
2023/10/08 07:29:55;;;;;;;8.40;3.67;;;;;;;;;;4930154;29;20090;-86
2023/10/08 07:32:40;;;;;;;9.38;3.72;;;;;;;;;;4927581;29;20465;-87
2023/10/08 07:35:29;;;;;;;9.27;4.13;;;;;;;;;;4931156;29;20119;-85
2023/10/08 07:38:15;;;;;;;10.70;4.35;;;;;;;;;;4930793;29;20024;-87
2023/10/08 07:41:01;;;;;;;9.50;3.45;;;;;;;;;;4917416;29;20102;-86
2023/10/08 07:43:55;;;;;;;8.63;3.17;;;;;;;;;;4929695;29;20023;-84
2023/10/08 07:46:40;;;;;;;8.43;3.38;;;;;;;;;;4930126;28;20082;-89
2023/10/08 07:49:29;;;;;;;14.05;4.90;;;;;;;;;;4928029;29;20095;-86
2023/10/08 07:52:15;;;;;;;11.48;5.55;;;;;;;;;;4910485;29;20040;-85
2023/10/08 07:55:07;;;;;;;14.15;5.13;;;;;;;;;;4927052;29;20421;-87
2023/10/08 07:57:52;;;;;;;12.35;4.95;;;;;;;;;;4929981;29;20027;-87
2023/10/08 08:00:39;;;;;;;8.35;3.85;;;;;;;;;;4930874;29;20035;-87
2023/10/08 08:03:24;;;;;;;9.27;3.75;;;;;;;;;;4938158;28;20031;-89
2023/10/08 08:06:13;;;;;;;9.02;4.30;;;;;;;;;;4930410;29;20027;-89
2023/10/08 08:08:58;;;;;;;10.20;3.65;;;;;;;;;;4922277;29;20036;-87
2023/10/08 08:11:45;;;;;;;9.57;4.50;;;;;;;;;;4927780;29;20030;-87
2023/10/08 08:14:31;;;;;;;8.98;4.03;;;;;;;;;;4921692;29;20024;-86
2023/10/08 08:17:17;;;;;;;10.48;3.70;;;;;;;;;;4926534;29;20031;-86
2023/10/08 08:20:17;;;;;;;9.43;3.55;;;;;;;;;;4932396;29;20024;-87
2023/10/08 08:23:06;;;;;;;10.45;3.83;;;;;;;;;;4932795;29;20039;-86
2023/10/08 08:26:11;;;;;;;10.55;4.95;;;;;;;;;;4929699;29;20027;-87
2023/10/08 08:28:59;;;;;;;9.73;4.78;;;;;;;;;;4929849;29;20046;-91
2023/10/08 08:31:46;;;;;;;11.15;3.97;;;;;;;;;;4934618;29;20027;-90
2023/10/08 08:34:33;;;;;;;8.90;4.30;;;;;;;;;;4935915;29;20035;-85
2023/10/08 08:37:22;;;;;;;8.32;4.13;;;;;;;;;;4932881;29;20114;-89
2023/10/08 08:40:18;;;;;;;9.25;3.80;;;;;;;;;;4924701;29;20034;-82
2023/10/08 08:43:05;;;;;;;8.50;3.30;;;;;;;;;;4924901;29;20248;-83
2023/10/08 08:45:50;;;;;;;9.77;3.38;;;;;;;;;;4927112;29;20055;-83
2023/10/08 08:48:36;;;;;;;7.47;3.17;;;;;;;;;;4929768;29;20043;-83
2023/10/08 08:51:23;;;;;;;9.25;3.88;;;;;;;;;;4928622;29;20244;-83
2023/10/08 08:54:08;;;;;;;10.35;4.40;;;;;;;;;;4928765;29;20095;-82
2023/10/08 08:56:54;;;;;;;9.57;3.83;;;;;;;;;;4925707;29;20031;-82
2023/10/08 08:59:43;;;;;;;9.75;3.60;;;;;;;;;;4925599;29;20447;-83
2023/10/08 09:02:29;;;;;;;8.05;3.80;;;;;;;;;;4928260;29;20036;-80
2023/10/08 09:05:24;;;;;;;10.07;4.20;;;;;;;;;;4927859;29;20114;-83
2023/10/08 09:08:09;;;;;;;13.52;4.03;;;;;;;;;;4929954;29;20055;-87
2023/10/08 09:11:00;;;;;;;12.65;4.70;;;;;;;;;;4929097;29;20027;-84
2023/10/08 09:13:46;;;;;;;10.00;5.45;;;;;;;;;;4931043;29;20040;-85
2023/10/08 09:16:34;;;;;;;8.50;4.00;;;;;;;;;;4927890;29;20633;-89
2023/10/08 09:19:22;;;;;;;10.07;4.40;;;;;;;;;;4930887;29;20520;-86
2023/10/08 09:22:08;;;;;;;7.43;3.72;;;;;;;;;;4922493;29;20039;-89
2023/10/08 09:24:53;;;;;;;9.40;3.65;;;;;;;;;;4928915;29;20438;-88
2023/10/08 09:27:46;;;;;;;11.43;4.50;;;;;;;;;;4926838;29;20032;-86
2023/10/08 09:30:33;;;;;;;14.35;4.28;;;;;;;;;;4925389;29;20041;-88
2023/10/08 09:33:18;;;;;;;11.15;4.45;;;;;;;;;;4929185;29;20363;-87
2023/10/08 09:36:06;;;;;;;13.23;3.60;;;;;;;;;;4930524;29;20023;-87
2023/10/08 09:38:52;;;;;;;8.90;4.20;;;;;;;;;;4932771;29;20491;-86
2023/10/08 09:41:38;;;;;;;14.25;5.22;;;;;;;;;;4932100;29;20517;-87
2023/10/08 09:44:24;;;;;;;10.98;4.57;;;;;;;;;;4932459;29;20039;-87
2023/10/08 09:47:12;;;;;;;9.77;3.83;;;;;;;;;;4928282;29;20067;-88
2023/10/08 09:50:02;;;;;;;10.13;3.97;;;;;;;;;;4926893;29;20032;-88
2023/10/08 09:52:53;;;;;;;9.55;3.63;;;;;;;;;;4930140;29;20034;-86
2023/10/08 09:55:43;;;;;;;7.70;3.65;;;;;;;;;;4933901;29;20034;-88
2023/10/08 09:58:29;;;;;;;12.02;3.45;;;;;;;;;;4931545;29;20031;-86
2023/10/08 10:01:16;;;;;;;9.02;4.25;;;;;;;;;;4933385;29;20039;-88
2023/10/08 10:04:06;;;;;;;12.18;4.47;;;;;;;;;;4934390;29;20096;-88
2023/10/08 10:06:51;;;;;;;;;;;;;;;;;;4946238;29;20040;-85
2023/10/08 10:09:40;;;;;;;11.15;3.88;;;;;;;;;;4940115;29;20341;-86
2023/10/08 10:12:26;;;;;;;9.07;3.75;;;;;;;;;;4940298;29;20066;-88
2023/10/08 10:15:11;;;;;;;10.50;3.95;;;;;;;;;;4946071;29;20039;-87
2023/10/08 10:17:59;;;;;;;9.88;3.97;;;;;;;;;;4948865;28;20070;-88
2023/10/08 10:20:46;;;;;;;8.50;3.97;;;;;;;;;;4932661;29;20052;-87
2023/10/08 10:23:39;;;;;;;9.10;3.63;;;;;;;;;;4930811;29;20028;-87
2023/10/08 10:26:28;;;;;;;8.63;3.45;;;;;;;;;;4934856;28;20390;-86
2023/10/08 10:29:19;;;;;;;10.57;4.15;;;;;;;;;;4931745;29;20034;-89
2023/10/08 10:32:05;;;;;;;11.15;4.32;;;;;;;;;;4930226;29;20027;-82
2023/10/08 10:34:51;;;;;;;7.47;3.22;;;;;;;;;;4925825;29;20031;-85
2023/10/08 10:37:51;;;;;;;10.30;5.00;;;;;;;;;;4929462;29;20028;-87
2023/10/08 10:40:41;;;;;;;9.85;4.47;;;;;;;;;;4922816;29;20048;-83
2023/10/08 10:43:33;;;;;;;9.82;4.22;;;;;;;;;;4929171;29;20027;-84
2023/10/08 10:46:29;;;;;;;10.30;4.03;;;;;;;;;;4930008;29;20051;-84
2023/10/08 10:49:18;;;;;;;9.60;4.25;;;;;;;;;;4916885;29;20056;-88
2023/10/08 10:52:17;;;;;;;6.78;4.00;;;;;;;;;;4922529;29;20503;-86
2023/10/08 10:55:31;;;;;;;13.45;4.57;;;;;;;;;;4925200;29;20052;-86
2023/10/08 10:58:14;;;;;;;;;;;;;;;;;;4929695;29;20031;-87
2023/10/08 11:01:04;;;;;;;12.65;4.60;;;;;;;;;;4932753;29;19915;-86
2023/10/08 11:03:51;;;;;;;10.25;4.35;;;;;;;;;;4932300;29;20066;-87
2023/10/08 11:06:37;;;;;;;10.00;4.13;;;;;;;;;;4931066;29;20127;-84
2023/10/08 11:09:35;;;;;;;9.82;4.82;;;;;;;;;;4935122;29;20028;-83
2023/10/08 11:12:32;;;;;;;10.02;4.78;;;;;;;;;;4933036;29;20031;-87
2023/10/08 11:15:17;;;;;;;10.35;3.92;;;;;;;;;;4925555;29;20039;-87
2023/10/08 11:18:15;;;;;;;10.18;3.97;;;;;;;;;;4921393;29;20031;-86
2023/10/08 11:21:13;;;;;;;12.18;4.38;;;;;;;;;;4940309;29;20028;-87
2023/10/08 11:24:01;;;;;;;10.88;3.95;;;;;;;;;;4923482;29;20020;-86
2023/10/08 11:27:02;;;;;;;14.65;4.40;;;;;;;;;;4912534;29;20031;-85
2023/10/08 11:29:48;;;;;;;10.13;4.82;;;;;;;;;;4928224;29;20376;-86
2023/10/08 11:32:33;;;;;;;9.95;4.53;;;;;;;;;;4928147;29;20036;-87
2023/10/08 11:35:20;;;;;;;10.00;3.63;;;;;;;;;;4925438;29;20071;-87
2023/10/08 11:38:09;;;;;;;8.48;3.60;;;;;;;;;;4924376;29;20173;-86
2023/10/08 11:40:58;;;;;;;9.23;4.20;;;;;;;;;;4927707;29;20044;-86
2023/10/08 11:43:44;;;;;;;8.55;4.00;;;;;;;;;;4926506;29;20035;-87
2023/10/08 11:46:38;;;;;;;11.38;4.20;;;;;;;;;;4931378;29;20158;-89
2023/10/08 11:49:25;;;;;;;12.38;4.57;;;;;;;;;;4929941;29;20042;-87
2023/10/08 11:52:11;;;;;;;19.48;5.50;;;;;;;;;;4923579;29;20035;-89
2023/10/08 11:54:56;;;;;;;10.95;4.03;;;;;;;;;;4928455;29;20098;-89
2023/10/08 11:57:45;;;;;;;9.98;4.18;;;;;;;;;;4925741;29;20063;-89
2023/10/08 12:00:30;;;;;;;12.95;4.93;;;;;;;;;;4921833;29;20035;-89
2023/10/08 12:03:18;;;;;;;8.60;3.97;;;;;;;;;;4924040;29;20074;-88
2023/10/08 12:06:05;;;;;;;10.53;4.00;;;;;;;;;;4926856;29;20095;-86
2023/10/08 12:08:53;;;;;;;9.15;3.95;;;;;;;;;;4930131;29;20041;-87
2023/10/08 12:11:39;;;;;;;10.27;4.63;;;;;;;;;;4925539;29;20126;-88
2023/10/08 12:14:30;;;;;;;10.38;4.22;;;;;;;;;;4916882;29;20027;-88
2023/10/08 12:17:17;;;;;;;12.20;4.43;;;;;;;;;;4923119;29;20065;-89
2023/10/08 12:20:12;;;;;;;10.95;4.28;;;;;;;;;;4928763;29;20087;-89
2023/10/08 12:22:59;;;;;;;9.85;4.25;;;;;;;;;;4917252;29;20712;-89
2023/10/08 12:25:51;;;;;;;12.18;4.80;;;;;;;;;;4924921;29;20435;-89
2023/10/08 12:28:36;;;;;;;14.25;4.50;;;;;;;;;;4932597;29;20023;-89
2023/10/08 12:34:38;;;;;;;14.50;4.55;;;;;;;;;;4924619;29;20035;-91
2023/10/08 12:37:38;;;;;;;12.15;4.18;;;;;;;;;;4925347;29;20052;-89
2023/10/08 12:40:24;;;;;;;10.15;4.40;;;;;;;;;;4929486;29;20039;-88
2023/10/08 12:43:12;;;;;;;13.05;4.35;;;;;;;;;;4927604;29;20114;-91
2023/10/08 12:46:02;;;;;;;14.00;5.57;;;;;;;;;;4925920;29;20039;-90
2023/10/08 12:48:54;;;;;;;14.05;4.78;;;;;;;;;;4931400;29;20244;-90
2023/10/08 12:51:45;;;;;;;10.70;5.07;;;;;;;;;;4932418;29;20047;-91
2023/10/08 12:54:44;;;;;;;21.30;6.68;;;;;;;;;;4940476;29;20039;-90
2023/10/08 12:57:34;;;;;;;11.85;5.40;;;;;;;;;;4929691;29;20054;-88
2023/10/08 13:00:23;;;;;;;16.03;4.57;;;;;;;;;;4931304;29;20020;-89
2023/10/08 13:03:15;;;;;;;15.40;6.18;;;;;;;;;;4928728;29;20035;-90
2023/10/08 13:06:06;;;;;;;12.43;5.30;;;;;;;;;;4917426;29;20091;-89
2023/10/08 13:08:56;;;;;;;12.18;4.70;;;;;;;;;;4930741;29;20142;-90
2023/10/08 13:11:42;;;;;;;15.35;4.95;;;;;;;;;;4929727;29;20805;-87
2023/10/08 13:14:29;;;;;;;14.20;4.88;;;;;;;;;;4927249;29;20031;-91
2023/10/08 13:17:14;;;;;;;15.95;4.22;;;;;;;;;;4932169;29;20230;-90
2023/10/08 13:20:02;;;;;;;14.60;5.05;;;;;;;;;;4937070;29;20035;-91
2023/10/08 13:22:53;;;;;;;13.20;4.93;;;;;;;;;;4943059;29;20027;-91
2023/10/08 13:25:51;;;;;;;19.98;7.15;;;;;;;;;;4926618;29;20046;-92
2023/10/08 13:28:54;;;;;;;14.65;5.82;;;;;;;;;;4935285;29;20490;-89
2023/10/08 13:31:45;;;;;;;23.83;5.53;;;;;;;;;;4937848;29;20107;-90
2023/10/08 13:34:31;;;;;;;17.25;4.97;;;;;;;;;;4923973;29;20027;-90
2023/10/08 13:37:17;;;;;;;16.75;5.45;;;;;;;;;;4936309;29;20031;-90
2023/10/08 13:40:15;;;;;;;12.02;4.88;;;;;;;;;;4928358;29;20032;-90
2023/10/08 13:43:00;;;;;;;18.13;4.90;;;;;;;;;;4923733;29;20114;-90
2023/10/08 13:49:46;;;;;;;16.70;4.90;;;;;;;;;;4914067;29;20044;-91
2023/10/08 13:52:38;;;;;;;20.48;11.77;;;;;;;;;;4916468;29;20043;-90
2023/10/08 13:55:25;;;;;;;73.60;49.40;;;;;;;;;;4930539;29;20050;-91
2023/10/08 13:58:15;;;;;;;550.08;489.60;;;;;;;;;;4923255;29;20055;-85
2023/10/08 14:01:18;;;;;;;957.30;707.95;;;;;;;;;;4916627;29;20042;-83
2023/10/08 14:04:11;;;;;;;99.07;64.38;;;;;;;;;;4906702;28;20098;-85
2023/10/08 14:06:59;;;;;;;593.30;476.50;;;;;;;;;;4915615;28;20031;-86
2023/10/08 14:09:45;;;;;;;99.90;66.38;;;;;;;;;;4915634;29;20036;-87
2023/10/08 14:12:34;;;;;;;19.63;11.82;;;;;;;;;;4915882;29;20043;-87
2023/10/08 14:15:22;;;;;;;173.70;114.72;;;;;;;;;;4906882;29;20039;-84
2023/10/08 14:18:08;;;;;;;80.43;54.78;;;;;;;;;;4916432;29;20055;-87
2023/10/08 14:20:54;;;;;;;86.90;53.90;;;;;;;;;;4918726;29;20035;-83
2023/10/08 14:23:39;;;;;;;18.38;5.47;;;;;;;;;;4914512;29;20095;-82
2023/10/08 14:26:25;;;;;;;41.13;21.92;;;;;;;;;;4918215;29;20384;-88
2023/10/08 14:29:14;;;;;;;18.95;5.18;;;;;;;;;;4921579;29;20039;-84
2023/10/08 14:31:59;;;;;;;;;;;;;;;;;;4911472;29;20035;-85
2023/10/08 14:43:48;;;;;;;16.65;4.82;;;;;;;;;;4915706;29;20128;-80
2023/10/08 14:46:35;;;;;;;10.25;4.45;;;;;;;;;;4924149;29;20044;-82
2023/10/08 14:49:22;;;;;;;14.07;5.68;;;;;;;;;;4915832;29;20047;-80
2023/10/08 14:52:07;;;;;;;15.75;5.22;;;;;;;;;;4919767;29;20084;-81
2023/10/08 14:54:52;;;;;;;22.70;5.75;;;;;;;;;;4930742;29;20447;-83
2023/10/08 14:57:41;;;;;;;16.33;5.03;;;;;;;;;;4918866;29;20111;-80
2023/10/08 15:00:27;;;;;;;13.82;5.20;;;;;;;;;;4922215;29;20038;-80
2023/10/08 15:03:16;;;;;;;13.95;5.45;;;;;;;;;;4920258;29;20132;-84
2023/10/08 15:06:03;;;;;;;15.90;5.25;;;;;;;;;;4911751;29;20699;-82
2023/10/08 15:08:49;;;;;;;11.40;5.07;;;;;;;;;;4929654;29;20114;-82
2023/10/08 15:11:36;;;;;;;11.48;5.32;;;;;;;;;;4919576;29;20032;-82
2023/10/08 15:14:27;;;;;;;15.27;7.13;;;;;;;;;;4920650;29;20107;-82
2023/10/08 15:17:13;;;;;;;13.95;6.07;;;;;;;;;;4921063;29;20019;-82
2023/10/08 15:20:00;;;;;;;20.90;10.32;;;;;;;;;;4920767;29;20030;-82
2023/10/08 15:22:46;;;;;;;17.23;8.23;;;;;;;;;;4915834;29;20036;-83
2023/10/08 15:25:36;;;;;;;24.23;8.82;;;;;;;;;;4920233;29;20023;-83
2023/10/08 15:28:22;;;;;;;23.40;11.35;;;;;;;;;;4919319;29;20059;-82
2023/10/08 15:31:07;;;;;;;16.00;6.45;;;;;;;;;;4920640;29;20027;-84
2023/10/08 15:33:53;;;;;;;21.00;9.10;;;;;;;;;;4921551;29;20106;-84
2023/10/08 15:36:39;;;;;;;19.10;7.20;;;;;;;;;;4917179;29;20039;-83
2023/10/08 15:39:28;;;;;;;17.08;6.25;;;;;;;;;;4917833;29;20028;-83
2023/10/08 15:42:13;;;;;;;20.95;6.55;;;;;;;;;;4915755;29;20111;-81
2023/10/08 15:44:59;;;;;;;19.00;7.18;;;;;;;;;;4918807;29;20028;-80
2023/10/08 15:47:46;;;;;;;13.07;5.78;;;;;;;;;;4905508;29;20491;-81
2023/10/08 15:50:32;;;;;;;21.55;9.68;;;;;;;;;;4921266;29;20478;-83
2023/10/08 15:53:18;;;;;;;22.70;12.68;;;;;;;;;;4918372;29;20562;-82
2023/10/08 15:56:03;;;;;;;150.23;108.85;;;;;;;;;;4930076;29;20030;-82
2023/10/08 15:58:49;;;;;;;141.02;104.72;;;;;;;;;;4923567;29;20032;-84
2023/10/08 16:01:34;;;;;;;145.57;103.47;;;;;;;;;;4934052;29;20101;-84
2023/10/08 16:04:20;;;;;;;107.40;72.45;;;;;;;;;;4935307;28;20489;-84
2023/10/08 16:07:05;;;;;;;27.65;12.55;;;;;;;;;;4935766;29;20031;-84
2023/10/08 16:09:50;;;;;;;66.45;46.35;;;;;;;;;;4935911;29;20027;-84
2023/10/08 16:12:36;;;;;;;92.38;67.85;;;;;;;;;;4941195;28;20096;-85
2023/10/08 16:15:21;;;;;;;75.28;53.10;;;;;;;;;;4937503;29;20533;-83
2023/10/08 16:18:10;;;;;;;50.42;36.17;;;;;;;;;;4939655;29;20042;-83
2023/10/08 16:20:56;;;;;;;27.73;16.17;;;;;;;;;;4937907;29;20163;-84
2023/10/08 16:23:44;;;;;;;28.20;18.00;;;;;;;;;;4936327;29;20089;-80
2023/10/08 16:26:38;;;;;;;25.50;14.25;;;;;;;;;;4934990;29;20031;-84
2023/10/08 16:29:24;;;;;;;19.02;8.55;;;;;;;;;;4938485;29;20450;-83
2023/10/08 16:32:09;;;;;;;16.88;7.95;;;;;;;;;;4934958;28;20038;-83
2023/10/08 16:34:56;;;;;;;15.75;8.52;;;;;;;;;;4935394;29;20083;-83
2023/10/08 16:37:42;;;;;;;19.38;7.80;;;;;;;;;;4921206;29;20485;-81
2023/10/08 16:40:28;;;;;;;18.33;7.53;;;;;;;;;;4935539;29;20050;-81
2023/10/08 16:43:16;;;;;;;17.65;8.02;;;;;;;;;;4932762;28;20035;-83
2023/10/08 16:46:05;;;;;;;16.83;7.63;;;;;;;;;;4937417;29;20055;-82
2023/10/08 16:48:52;;;;;;;19.98;8.02;;;;;;;;;;4935671;28;20039;-80
2023/10/08 16:51:37;;;;;;;15.88;7.90;;;;;;;;;;4935804;29;20109;-80
2023/10/08 16:54:25;;;;;;;16.13;7.00;;;;;;;;;;4934445;29;20034;-80
2023/10/08 16:57:10;;;;;;;15.25;5.95;;;;;;;;;;4928056;28;20435;-80
2023/10/08 16:59:57;;;;;;;18.77;6.93;;;;;;;;;;4933910;29;20118;-82
2023/10/08 17:02:42;;;;;;;15.55;7.13;;;;;;;;;;4936543;29;20062;-83
2023/10/08 17:05:27;;;;;;;21.02;8.65;;;;;;;;;;4931685;29;20035;-82
2023/10/08 17:08:13;;;;;;;17.55;8.35;;;;;;;;;;4933863;29;20031;-81
2023/10/08 17:11:01;;;;;;;18.77;8.98;;;;;;;;;;4933772;29;20106;-81
2023/10/08 17:14:10;;;;;;;22.55;9.85;;;;;;;;;;4937614;29;20114;-82
2023/10/08 17:16:56;;;;;;;22.75;9.82;;;;;;;;;;4933992;29;20057;-81
2023/10/08 17:19:42;;;;;;;18.55;7.97;;;;;;;;;;4934386;29;20026;-79
2023/10/08 17:22:28;;;;;;;16.27;7.63;;;;;;;;;;4934577;28;20536;-80
2023/10/08 17:25:13;;;;;;;16.58;6.18;;;;;;;;;;4934012;29;20572;-79
2023/10/08 17:27:58;;;;;;;15.23;5.38;;;;;;;;;;4932250;28;20035;-83
2023/10/08 17:30:44;;;;;;;15.90;6.05;;;;;;;;;;4933209;29;20035;-81
2023/10/08 17:33:29;;;;;;;17.23;5.68;;;;;;;;;;4932597;28;20165;-83
2023/10/08 17:36:16;;;;;;;13.13;4.85;;;;;;;;;;4941207;28;20085;-81
2023/10/08 17:39:18;;;;;;;15.50;6.20;;;;;;;;;;4942891;29;20091;-78
2023/10/08 17:42:04;;;;;;;11.68;5.60;;;;;;;;;;4945885;29;20027;-77